sensor_id;sensor_type;location;lat;lon;timestamp;P1;durP1;ratioP1;P2;durP2;ratioP2
79137;SDS011;68544;45.566;10.238;2023-05-27T00:02:31;19.30;;;16.88;;
79137;SDS011;68544;45.566;10.238;2023-05-27T00:05:55;21.17;;;17.35;;
79137;SDS011;68544;45.566;10.238;2023-05-27T00:09:19;22.25;;;18.83;;
79137;SDS011;68544;45.566;10.238;2023-05-27T00:12:43;20.95;;;16.95;;
79137;SDS011;68544;45.566;10.238;2023-05-27T00:16:06;22.73;;;18.95;;
79137;SDS011;68544;45.566;10.238;2023-05-27T00:19:30;22.08;;;18.98;;
79137;SDS011;68544;45.566;10.238;2023-05-27T00:22:55;20.10;;;17.42;;
79137;SDS011;68544;45.566;10.238;2023-05-27T00:26:22;17.58;;;15.70;;
79137;SDS011;68544;45.566;10.238;2023-05-27T00:29:46;19.58;;;17.52;;
79137;SDS011;68544;45.566;10.238;2023-05-27T00:33:10;16.73;;;15.02;;
79137;SDS011;68544;45.566;10.238;2023-05-27T00:36:34;16.75;;;15.10;;
79137;SDS011;68544;45.566;10.238;2023-05-27T00:39:57;17.52;;;14.45;;
79137;SDS011;68544;45.566;10.238;2023-05-27T00:43:24;16.05;;;14.40;;
79137;SDS011;68544;45.566;10.238;2023-05-27T00:46:48;14.82;;;13.43;;
79137;SDS011;68544;45.566;10.238;2023-05-27T00:50:13;16.23;;;14.52;;
79137;SDS011;68544;45.566;10.238;2023-05-27T00:53:41;15.23;;;13.63;;
79137;SDS011;68544;45.566;10.238;2023-05-27T00:57:08;16.38;;;14.13;;
79137;SDS011;68544;45.566;10.238;2023-05-27T01:00:34;16.52;;;14.75;;
79137;SDS011;68544;45.566;10.238;2023-05-27T01:04:01;15.77;;;14.18;;
79137;SDS011;68544;45.566;10.238;2023-05-27T01:07:29;16.77;;;15.13;;
79137;SDS011;68544;45.566;10.238;2023-05-27T01:11:49;14.48;;;13.10;;
79137;SDS011;68544;45.566;10.238;2023-05-27T01:15:19;16.80;;;15.00;;
79137;SDS011;68544;45.566;10.238;2023-05-27T01:18:44;13.73;;;12.32;;
79137;SDS011;68544;45.566;10.238;2023-05-27T01:22:12;15.02;;;13.55;;
79137;SDS011;68544;45.566;10.238;2023-05-27T01:25:36;16.20;;;14.10;;
79137;SDS011;68544;45.566;10.238;2023-05-27T01:29:00;15.23;;;13.57;;
79137;SDS011;68544;45.566;10.238;2023-05-27T01:35:54;15.40;;;13.52;;
79137;SDS011;68544;45.566;10.238;2023-05-27T01:39:24;14.15;;;12.75;;
79137;SDS011;68544;45.566;10.238;2023-05-27T01:42:50;14.65;;;12.77;;
79137;SDS011;68544;45.566;10.238;2023-05-27T01:46:14;13.32;;;11.70;;
79137;SDS011;68544;45.566;10.238;2023-05-27T01:49:38;13.30;;;11.35;;
79137;SDS011;68544;45.566;10.238;2023-05-27T01:53:03;10.73;;;9.55;;
79137;SDS011;68544;45.566;10.238;2023-05-27T01:56:28;12.38;;;10.75;;
79137;SDS011;68544;45.566;10.238;2023-05-27T01:59:52;9.82;;;8.57;;
79137;SDS011;68544;45.566;10.238;2023-05-27T02:03:16;9.77;;;8.45;;
79137;SDS011;68544;45.566;10.238;2023-05-27T02:06:39;9.63;;;8.40;;
79137;SDS011;68544;45.566;10.238;2023-05-27T02:10:04;10.82;;;9.13;;
79137;SDS011;68544;45.566;10.238;2023-05-27T02:13:27;9.68;;;7.82;;
79137;SDS011;68544;45.566;10.238;2023-05-27T02:16:51;10.07;;;8.68;;
79137;SDS011;68544;45.566;10.238;2023-05-27T02:20:23;12.68;;;10.40;;
79137;SDS011;68544;45.566;10.238;2023-05-27T02:23:47;11.18;;;10.18;;
79137;SDS011;68544;45.566;10.238;2023-05-27T02:27:11;11.73;;;10.57;;
79137;SDS011;68544;45.566;10.238;2023-05-27T02:30:35;11.27;;;10.18;;
79137;SDS011;68544;45.566;10.238;2023-05-27T02:33:59;19.20;;;14.45;;
79137;SDS011;68544;45.566;10.238;2023-05-27T02:37:23;11.27;;;10.13;;
79137;SDS011;68544;45.566;10.238;2023-05-27T02:40:46;11.02;;;8.55;;
79137;SDS011;68544;45.566;10.238;2023-05-27T02:44:11;9.30;;;8.27;;
79137;SDS011;68544;45.566;10.238;2023-05-27T02:47:35;8.60;;;7.78;;
79137;SDS011;68544;45.566;10.238;2023-05-27T02:50:59;9.25;;;7.95;;
79137;SDS011;68544;45.566;10.238;2023-05-27T02:54:23;8.63;;;7.70;;
79137;SDS011;68544;45.566;10.238;2023-05-27T02:57:47;8.45;;;7.63;;
79137;SDS011;68544;45.566;10.238;2023-05-27T03:01:10;9.02;;;8.13;;
79137;SDS011;68544;45.566;10.238;2023-05-27T03:04:35;11.02;;;9.35;;
79137;SDS011;68544;45.566;10.238;2023-05-27T03:07:59;10.45;;;9.38;;
79137;SDS011;68544;45.566;10.238;2023-05-27T03:11:23;12.07;;;9.80;;
79137;SDS011;68544;45.566;10.238;2023-05-27T03:14:47;11.32;;;9.25;;
79137;SDS011;68544;45.566;10.238;2023-05-27T03:18:11;10.05;;;9.10;;
79137;SDS011;68544;45.566;10.238;2023-05-27T03:21:35;10.38;;;9.27;;
79137;SDS011;68544;45.566;10.238;2023-05-27T03:24:59;10.40;;;9.40;;
79137;SDS011;68544;45.566;10.238;2023-05-27T03:28:23;11.32;;;9.32;;
79137;SDS011;68544;45.566;10.238;2023-05-27T03:31:47;10.75;;;9.65;;
79137;SDS011;68544;45.566;10.238;2023-05-27T03:35:11;11.40;;;9.65;;
79137;SDS011;68544;45.566;10.238;2023-05-27T03:38:35;10.32;;;9.27;;
79137;SDS011;68544;45.566;10.238;2023-05-27T03:41:59;11.30;;;9.23;;
79137;SDS011;68544;45.566;10.238;2023-05-27T03:45:23;10.88;;;9.68;;
79137;SDS011;68544;45.566;10.238;2023-05-27T03:48:47;13.32;;;9.85;;
79137;SDS011;68544;45.566;10.238;2023-05-27T03:52:11;11.20;;;10.20;;
79137;SDS011;68544;45.566;10.238;2023-05-27T03:55:35;11.50;;;10.40;;
79137;SDS011;68544;45.566;10.238;2023-05-27T03:58:59;11.75;;;10.30;;
79137;SDS011;68544;45.566;10.238;2023-05-27T04:02:22;11.25;;;10.23;;
79137;SDS011;68544;45.566;10.238;2023-05-27T04:05:46;11.05;;;9.85;;
79137;SDS011;68544;45.566;10.238;2023-05-27T04:09:10;10.65;;;9.60;;
79137;SDS011;68544;45.566;10.238;2023-05-27T04:12:34;11.60;;;9.57;;
79137;SDS011;68544;45.566;10.238;2023-05-27T04:15:58;9.88;;;8.88;;
79137;SDS011;68544;45.566;10.238;2023-05-27T04:19:23;9.00;;;8.07;;
79137;SDS011;68544;45.566;10.238;2023-05-27T04:22:47;7.93;;;7.13;;
79137;SDS011;68544;45.566;10.238;2023-05-27T04:26:11;8.75;;;7.93;;
79137;SDS011;68544;45.566;10.238;2023-05-27T04:29:35;7.90;;;7.10;;
79137;SDS011;68544;45.566;10.238;2023-05-27T04:32:59;10.60;;;8.30;;
79137;SDS011;68544;45.566;10.238;2023-05-27T04:36:23;9.02;;;8.13;;
79137;SDS011;68544;45.566;10.238;2023-05-27T04:39:47;10.07;;;8.73;;
79137;SDS011;68544;45.566;10.238;2023-05-27T04:43:17;10.10;;;8.90;;
79137;SDS011;68544;45.566;10.238;2023-05-27T04:46:42;10.13;;;8.98;;
79137;SDS011;68544;45.566;10.238;2023-05-27T04:50:08;9.02;;;8.13;;
79137;SDS011;68544;45.566;10.238;2023-05-27T04:53:32;9.52;;;8.35;;
79137;SDS011;68544;45.566;10.238;2023-05-27T04:56:59;9.07;;;8.18;;
79137;SDS011;68544;45.566;10.238;2023-05-27T05:00:23;9.60;;;8.60;;
79137;SDS011;68544;45.566;10.238;2023-05-27T05:03:49;9.45;;;7.80;;
79137;SDS011;68544;45.566;10.238;2023-05-27T05:07:15;8.00;;;6.30;;
79137;SDS011;68544;45.566;10.238;2023-05-27T05:10:40;8.50;;;6.38;;
79137;SDS011;68544;45.566;10.238;2023-05-27T05:14:03;6.78;;;5.70;;
79137;SDS011;68544;45.566;10.238;2023-05-27T05:17:28;5.78;;;4.28;;
79137;SDS011;68544;45.566;10.238;2023-05-27T05:20:52;5.95;;;5.35;;
79137;SDS011;68544;45.566;10.238;2023-05-27T05:24:15;6.45;;;5.85;;
79137;SDS011;68544;45.566;10.238;2023-05-27T05:27:40;6.72;;;5.75;;
79137;SDS011;68544;45.566;10.238;2023-05-27T05:31:04;4.80;;;4.40;;
79137;SDS011;68544;45.566;10.238;2023-05-27T05:34:29;5.30;;;4.18;;
79137;SDS011;68544;45.566;10.238;2023-05-27T05:37:53;4.90;;;3.50;;
79137;SDS011;68544;45.566;10.238;2023-05-27T05:41:16;3.72;;;3.28;;
79137;SDS011;68544;45.566;10.238;2023-05-27T05:44:41;8.20;;;3.63;;
79137;SDS011;68544;45.566;10.238;2023-05-27T05:48:04;4.63;;;3.63;;
79137;SDS011;68544;45.566;10.238;2023-05-27T05:51:28;4.82;;;3.88;;
79137;SDS011;68544;45.566;10.238;2023-05-27T05:54:52;3.88;;;3.17;;
79137;SDS011;68544;45.566;10.238;2023-05-27T05:58:16;5.63;;;3.35;;
79137;SDS011;68544;45.566;10.238;2023-05-27T06:01:40;4.07;;;2.97;;
79137;SDS011;68544;45.566;10.238;2023-05-27T06:05:04;3.67;;;2.80;;
79137;SDS011;68544;45.566;10.238;2023-05-27T06:08:28;4.45;;;3.42;;
79137;SDS011;68544;45.566;10.238;2023-05-27T06:11:52;5.20;;;2.50;;
79137;SDS011;68544;45.566;10.238;2023-05-27T06:15:16;3.65;;;2.50;;
79137;SDS011;68544;45.566;10.238;2023-05-27T06:18:39;6.00;;;3.58;;
79137;SDS011;68544;45.566;10.238;2023-05-27T06:22:03;8.13;;;4.40;;
79137;SDS011;68544;45.566;10.238;2023-05-27T06:25:27;7.95;;;3.83;;
79137;SDS011;68544;45.566;10.238;2023-05-27T06:28:52;8.32;;;3.50;;
79137;SDS011;68544;45.566;10.238;2023-05-27T06:32:16;3.38;;;2.80;;
79137;SDS011;68544;45.566;10.238;2023-05-27T06:35:40;3.72;;;2.78;;
79137;SDS011;68544;45.566;10.238;2023-05-27T06:39:04;6.57;;;2.85;;
79137;SDS011;68544;45.566;10.238;2023-05-27T06:42:28;3.28;;;2.00;;
79137;SDS011;68544;45.566;10.238;2023-05-27T06:45:52;5.32;;;2.63;;
79137;SDS011;68544;45.566;10.238;2023-05-27T06:49:15;3.03;;;2.10;;
79137;SDS011;68544;45.566;10.238;2023-05-27T06:52:39;2.67;;;1.80;;
79137;SDS011;68544;45.566;10.238;2023-05-27T06:56:03;8.90;;;2.50;;
79137;SDS011;68544;45.566;10.238;2023-05-27T06:59:27;2.72;;;2.10;;
79137;SDS011;68544;45.566;10.238;2023-05-27T07:02:51;3.90;;;2.20;;
79137;SDS011;68544;45.566;10.238;2023-05-27T07:06:15;3.33;;;1.60;;
79137;SDS011;68544;45.566;10.238;2023-05-27T07:09:40;2.80;;;1.60;;
79137;SDS011;68544;45.566;10.238;2023-05-27T07:13:04;2.10;;;1.65;;
79137;SDS011;68544;45.566;10.238;2023-05-27T07:16:28;3.83;;;1.60;;
79137;SDS011;68544;45.566;10.238;2023-05-27T07:19:52;2.63;;;1.67;;
79137;SDS011;68544;45.566;10.238;2023-05-27T07:23:16;8.75;;;2.42;;
79137;SDS011;68544;45.566;10.238;2023-05-27T07:26:40;2.83;;;1.80;;
79137;SDS011;68544;45.566;10.238;2023-05-27T07:30:04;4.93;;;2.05;;
79137;SDS011;68544;45.566;10.238;2023-05-27T07:33:29;5.55;;;1.98;;
79137;SDS011;68544;45.566;10.238;2023-05-27T07:36:52;2.10;;;1.50;;
79137;SDS011;68544;45.566;10.238;2023-05-27T07:40:16;2.25;;;1.55;;
79137;SDS011;68544;45.566;10.238;2023-05-27T07:43:40;2.53;;;1.48;;
79137;SDS011;68544;45.566;10.238;2023-05-27T07:47:04;2.85;;;1.77;;
79137;SDS011;68544;45.566;10.238;2023-05-27T07:50:28;2.55;;;1.52;;
79137;SDS011;68544;45.566;10.238;2023-05-27T07:53:52;2.95;;;1.75;;
79137;SDS011;68544;45.566;10.238;2023-05-27T07:57:16;4.97;;;1.70;;
79137;SDS011;68544;45.566;10.238;2023-05-27T08:00:40;13.55;;;3.88;;
79137;SDS011;68544;45.566;10.238;2023-05-27T08:04:04;2.67;;;1.70;;
79137;SDS011;68544;45.566;10.238;2023-05-27T08:07:31;8.00;;;2.22;;
79137;SDS011;68544;45.566;10.238;2023-05-27T08:10:56;3.90;;;1.83;;
79137;SDS011;68544;45.566;10.238;2023-05-27T08:14:20;9.02;;;2.92;;
79137;SDS011;68544;45.566;10.238;2023-05-27T08:17:44;3.17;;;2.00;;
79137;SDS011;68544;45.566;10.238;2023-05-27T08:21:07;3.15;;;1.67;;
79137;SDS011;68544;45.566;10.238;2023-05-27T08:24:34;3.70;;;1.73;;
79137;SDS011;68544;45.566;10.238;2023-05-27T08:27:57;2.75;;;2.05;;
79137;SDS011;68544;45.566;10.238;2023-05-27T08:31:21;3.70;;;2.25;;
79137;SDS011;68544;45.566;10.238;2023-05-27T08:34:45;2.65;;;2.20;;
79137;SDS011;68544;45.566;10.238;2023-05-27T08:38:12;2.08;;;1.88;;
79137;SDS011;68544;45.566;10.238;2023-05-27T08:41:37;3.65;;;2.38;;
79137;SDS011;68544;45.566;10.238;2023-05-27T08:45:01;7.57;;;2.78;;
79137;SDS011;68544;45.566;10.238;2023-05-27T08:48:26;4.70;;;1.85;;
79137;SDS011;68544;45.566;10.238;2023-05-27T08:51:50;3.20;;;2.00;;
79137;SDS011;68544;45.566;10.238;2023-05-27T08:55:20;5.18;;;2.33;;
79137;SDS011;68544;45.566;10.238;2023-05-27T08:58:46;3.17;;;1.88;;
79137;SDS011;68544;45.566;10.238;2023-05-27T09:02:11;7.18;;;2.60;;
79137;SDS011;68544;45.566;10.238;2023-05-27T09:09:06;3.30;;;2.10;;
79137;SDS011;68544;45.566;10.238;2023-05-27T09:12:33;4.45;;;2.20;;
79137;SDS011;68544;45.566;10.238;2023-05-27T09:16:01;4.22;;;2.35;;
79137;SDS011;68544;45.566;10.238;2023-05-27T09:19:32;4.85;;;2.35;;
79137;SDS011;68544;45.566;10.238;2023-05-27T09:22:56;3.05;;;2.28;;
79137;SDS011;68544;45.566;10.238;2023-05-27T09:26:22;3.13;;;2.30;;
79137;SDS011;68544;45.566;10.238;2023-05-27T09:29:53;2.95;;;2.00;;
79137;SDS011;68544;45.566;10.238;2023-05-27T09:33:25;4.20;;;2.42;;
79137;SDS011;68544;45.566;10.238;2023-05-27T09:36:49;4.88;;;2.42;;
79137;SDS011;68544;45.566;10.238;2023-05-27T09:40:14;3.47;;;2.38;;
79137;SDS011;68544;45.566;10.238;2023-05-27T09:43:37;3.92;;;2.30;;
79137;SDS011;68544;45.566;10.238;2023-05-27T09:47:07;4.63;;;2.50;;
79137;SDS011;68544;45.566;10.238;2023-05-27T09:50:33;3.60;;;2.40;;
79137;SDS011;68544;45.566;10.238;2023-05-27T09:53:58;7.88;;;3.03;;
79137;SDS011;68544;45.566;10.238;2023-05-27T09:57:22;3.28;;;2.20;;
79137;SDS011;68544;45.566;10.238;2023-05-27T10:00:47;5.57;;;2.30;;
79137;SDS011;68544;45.566;10.238;2023-05-27T10:04:13;3.72;;;2.17;;
79137;SDS011;68544;45.566;10.238;2023-05-27T10:07:48;2.88;;;2.40;;
79137;SDS011;68544;45.566;10.238;2023-05-27T10:11:11;4.25;;;2.40;;
79137;SDS011;68544;45.566;10.238;2023-05-27T10:14:36;2.90;;;2.10;;
79137;SDS011;68544;45.566;10.238;2023-05-27T10:18:04;4.70;;;2.63;;
79137;SDS011;68544;45.566;10.238;2023-05-27T10:21:34;4.35;;;3.10;;
79137;SDS011;68544;45.566;10.238;2023-05-27T10:25:15;5.18;;;2.97;;
79137;SDS011;68544;45.566;10.238;2023-05-27T10:28:39;3.63;;;2.80;;
79137;SDS011;68544;45.566;10.238;2023-05-27T10:32:03;5.30;;;4.60;;
79137;SDS011;68544;45.566;10.238;2023-05-27T10:35:38;4.82;;;4.28;;
79137;SDS011;68544;45.566;10.238;2023-05-27T10:39:06;4.53;;;4.13;;
79137;SDS011;68544;45.566;10.238;2023-05-27T10:42:35;3.65;;;3.35;;
79137;SDS011;68544;45.566;10.238;2023-05-27T10:46:04;5.78;;;4.25;;
79137;SDS011;68544;45.566;10.238;2023-05-27T10:49:38;4.10;;;3.70;;
79137;SDS011;68544;45.566;10.238;2023-05-27T10:53:02;6.05;;;5.55;;
79137;SDS011;68544;45.566;10.238;2023-05-27T11:00:00;7.57;;;5.63;;
79137;SDS011;68544;45.566;10.238;2023-05-27T11:03:26;7.68;;;6.45;;
79137;SDS011;68544;45.566;10.238;2023-05-27T11:06:58;6.47;;;5.88;;
79137;SDS011;68544;45.566;10.238;2023-05-27T11:10:24;6.13;;;4.97;;
79137;SDS011;68544;45.566;10.238;2023-05-27T11:13:47;5.47;;;4.95;;
79137;SDS011;68544;45.566;10.238;2023-05-27T11:17:13;4.78;;;4.30;;
79137;SDS011;68544;45.566;10.238;2023-05-27T11:20:37;5.72;;;5.20;;
79137;SDS011;68544;45.566;10.238;2023-05-27T11:24:13;5.50;;;5.00;;
79137;SDS011;68544;45.566;10.238;2023-05-27T11:27:38;6.68;;;5.97;;
79137;SDS011;68544;45.566;10.238;2023-05-27T11:31:02;8.70;;;4.70;;
79137;SDS011;68544;45.566;10.238;2023-05-27T11:34:27;28.02;;;6.53;;
79137;SDS011;68544;45.566;10.238;2023-05-27T11:37:53;6.03;;;5.32;;
79137;SDS011;68544;45.566;10.238;2023-05-27T11:41:25;7.10;;;5.30;;
79137;SDS011;68544;45.566;10.238;2023-05-27T11:44:50;6.63;;;5.40;;
79137;SDS011;68544;45.566;10.238;2023-05-27T11:48:13;9.98;;;5.55;;
79137;SDS011;68544;45.566;10.238;2023-05-27T11:51:42;10.65;;;6.10;;
79137;SDS011;68544;45.566;10.238;2023-05-27T11:55:19;6.28;;;5.32;;
79137;SDS011;68544;45.566;10.238;2023-05-27T11:58:43;6.57;;;5.85;;
79137;SDS011;68544;45.566;10.238;2023-05-27T12:02:07;8.27;;;6.22;;
79137;SDS011;68544;45.566;10.238;2023-05-27T12:05:31;8.15;;;7.35;;
79137;SDS011;68544;45.566;10.238;2023-05-27T12:08:56;22.48;;;7.88;;
79137;SDS011;68544;45.566;10.238;2023-05-27T12:12:20;6.60;;;5.93;;
79137;SDS011;68544;45.566;10.238;2023-05-27T12:15:47;6.95;;;5.78;;
79137;SDS011;68544;45.566;10.238;2023-05-27T12:19:11;7.55;;;6.60;;
79137;SDS011;68544;45.566;10.238;2023-05-27T12:22:36;7.85;;;7.15;;
79137;SDS011;68544;45.566;10.238;2023-05-27T12:26:00;8.90;;;8.00;;
79137;SDS011;68544;45.566;10.238;2023-05-27T12:29:23;7.25;;;6.65;;
79137;SDS011;68544;45.566;10.238;2023-05-27T12:32:47;7.32;;;6.28;;
79137;SDS011;68544;45.566;10.238;2023-05-27T12:36:11;5.53;;;5.00;;
79137;SDS011;68544;45.566;10.238;2023-05-27T12:39:35;8.93;;;8.18;;
79137;SDS011;68544;45.566;10.238;2023-05-27T12:42:59;7.63;;;6.82;;
79137;SDS011;68544;45.566;10.238;2023-05-27T12:46:24;8.38;;;7.53;;
79137;SDS011;68544;45.566;10.238;2023-05-27T12:49:48;9.10;;;8.05;;
79137;SDS011;68544;45.566;10.238;2023-05-27T12:53:12;9.07;;;8.25;;
79137;SDS011;68544;45.566;10.238;2023-05-27T12:56:36;8.27;;;7.47;;
79137;SDS011;68544;45.566;10.238;2023-05-27T13:00:00;7.10;;;6.40;;
79137;SDS011;68544;45.566;10.238;2023-05-27T13:03:24;7.15;;;6.45;;
79137;SDS011;68544;45.566;10.238;2023-05-27T13:06:47;7.32;;;6.65;;
79137;SDS011;68544;45.566;10.238;2023-05-27T13:10:25;6.40;;;5.80;;
79137;SDS011;68544;45.566;10.238;2023-05-27T13:13:51;7.43;;;6.72;;
79137;SDS011;68544;45.566;10.238;2023-05-27T13:17:15;6.10;;;5.47;;
79137;SDS011;68544;45.566;10.238;2023-05-27T13:20:39;15.45;;;6.10;;
79137;SDS011;68544;45.566;10.238;2023-05-27T13:24:03;6.57;;;5.97;;
79137;SDS011;68544;45.566;10.238;2023-05-27T13:27:27;11.40;;;7.18;;
79137;SDS011;68544;45.566;10.238;2023-05-27T13:30:51;7.15;;;6.45;;
79137;SDS011;68544;45.566;10.238;2023-05-27T13:34:15;7.70;;;6.15;;
79137;SDS011;68544;45.566;10.238;2023-05-27T13:37:39;8.57;;;7.72;;
79137;SDS011;68544;45.566;10.238;2023-05-27T13:41:03;6.85;;;6.05;;
79137;SDS011;68544;45.566;10.238;2023-05-27T13:44:27;7.82;;;7.13;;
79137;SDS011;68544;45.566;10.238;2023-05-27T13:47:51;6.97;;;5.82;;
79137;SDS011;68544;45.566;10.238;2023-05-27T13:51:15;8.15;;;7.35;;
79137;SDS011;68544;45.566;10.238;2023-05-27T13:54:40;7.50;;;6.60;;
79137;SDS011;68544;45.566;10.238;2023-05-27T13:58:03;6.95;;;5.43;;
79137;SDS011;68544;45.566;10.238;2023-05-27T14:01:30;6.60;;;6.00;;
79137;SDS011;68544;45.566;10.238;2023-05-27T14:04:54;6.80;;;5.97;;
79137;SDS011;68544;45.566;10.238;2023-05-27T14:08:18;8.25;;;7.50;;
79137;SDS011;68544;45.566;10.238;2023-05-27T14:11:42;8.10;;;7.30;;
79137;SDS011;68544;45.566;10.238;2023-05-27T14:15:06;7.70;;;6.85;;
79137;SDS011;68544;45.566;10.238;2023-05-27T14:18:30;8.30;;;7.50;;
79137;SDS011;68544;45.566;10.238;2023-05-27T14:21:54;7.40;;;6.70;;
79137;SDS011;68544;45.566;10.238;2023-05-27T14:25:18;7.80;;;6.25;;
79137;SDS011;68544;45.566;10.238;2023-05-27T14:28:42;7.20;;;6.60;;
79137;SDS011;68544;45.566;10.238;2023-05-27T14:32:09;8.25;;;6.75;;
79137;SDS011;68544;45.566;10.238;2023-05-27T14:35:34;7.57;;;6.88;;
79137;SDS011;68544;45.566;10.238;2023-05-27T14:38:58;7.70;;;6.85;;
79137;SDS011;68544;45.566;10.238;2023-05-27T14:42:22;6.97;;;6.38;;
79137;SDS011;68544;45.566;10.238;2023-05-27T14:45:46;7.53;;;6.45;;
79137;SDS011;68544;45.566;10.238;2023-05-27T14:49:12;7.53;;;6.25;;
79137;SDS011;68544;45.566;10.238;2023-05-27T14:53:00;7.07;;;6.30;;
79137;SDS011;68544;45.566;10.238;2023-05-27T14:56:24;6.95;;;6.35;;
79137;SDS011;68544;45.566;10.238;2023-05-27T14:59:48;7.75;;;6.80;;
79137;SDS011;68544;45.566;10.238;2023-05-27T15:03:27;7.82;;;6.90;;
79137;SDS011;68544;45.566;10.238;2023-05-27T15:06:51;7.18;;;6.35;;
79137;SDS011;68544;45.566;10.238;2023-05-27T15:10:14;7.43;;;6.72;;
79137;SDS011;68544;45.566;10.238;2023-05-27T15:13:38;5.93;;;5.32;;
79137;SDS011;68544;45.566;10.238;2023-05-27T15:17:21;7.65;;;5.90;;
79137;SDS011;68544;45.566;10.238;2023-05-27T15:24:09;7.28;;;6.32;;
79137;SDS011;68544;45.566;10.238;2023-05-27T15:27:33;7.47;;;6.30;;
79137;SDS011;68544;45.566;10.238;2023-05-27T15:30:57;6.28;;;5.63;;
79137;SDS011;68544;45.566;10.238;2023-05-27T15:34:20;8.27;;;5.28;;
79137;SDS011;68544;45.566;10.238;2023-05-27T15:37:44;7.15;;;6.25;;
79137;SDS011;68544;45.566;10.238;2023-05-27T15:41:08;6.05;;;5.45;;
79137;SDS011;68544;45.566;10.238;2023-05-27T15:44:32;7.25;;;5.00;;
79137;SDS011;68544;45.566;10.238;2023-05-27T15:47:56;8.73;;;6.28;;
79137;SDS011;68544;45.566;10.238;2023-05-27T15:51:20;7.25;;;5.25;;
79137;SDS011;68544;45.566;10.238;2023-05-27T15:54:44;6.60;;;5.43;;
79137;SDS011;68544;45.566;10.238;2023-05-27T15:58:08;10.13;;;6.10;;
79137;SDS011;68544;45.566;10.238;2023-05-27T16:01:32;9.18;;;7.57;;
79137;SDS011;68544;45.566;10.238;2023-05-27T16:04:56;8.20;;;7.40;;
79137;SDS011;68544;45.566;10.238;2023-05-27T16:08:20;10.93;;;7.85;;
79137;SDS011;68544;45.566;10.238;2023-05-27T16:11:43;8.52;;;7.60;;
79137;SDS011;68544;45.566;10.238;2023-05-27T16:15:07;10.98;;;8.45;;
79137;SDS011;68544;45.566;10.238;2023-05-27T16:18:32;8.77;;;7.88;;
79137;SDS011;68544;45.566;10.238;2023-05-27T16:21:55;10.48;;;8.98;;
79137;SDS011;68544;45.566;10.238;2023-05-27T16:25:19;9.88;;;8.50;;
79137;SDS011;68544;45.566;10.238;2023-05-27T16:28:43;10.63;;;7.80;;
79137;SDS011;68544;45.566;10.238;2023-05-27T16:32:07;10.13;;;8.05;;
79137;SDS011;68544;45.566;10.238;2023-05-27T16:35:31;9.15;;;7.75;;
79137;SDS011;68544;45.566;10.238;2023-05-27T16:38:55;10.07;;;8.18;;
79137;SDS011;68544;45.566;10.238;2023-05-27T16:42:19;9.38;;;7.82;;
79137;SDS011;68544;45.566;10.238;2023-05-27T16:45:43;9.07;;;8.13;;
79137;SDS011;68544;45.566;10.238;2023-05-27T16:49:07;8.93;;;8.00;;
79137;SDS011;68544;45.566;10.238;2023-05-27T16:52:31;10.35;;;9.20;;
79137;SDS011;68544;45.566;10.238;2023-05-27T16:55:54;10.68;;;8.63;;
79137;SDS011;68544;45.566;10.238;2023-05-27T16:59:18;9.15;;;8.25;;
79137;SDS011;68544;45.566;10.238;2023-05-27T17:02:42;11.77;;;8.40;;
79137;SDS011;68544;45.566;10.238;2023-05-27T17:06:06;9.38;;;7.57;;
79137;SDS011;68544;45.566;10.238;2023-05-27T17:09:35;11.13;;;8.07;;
79137;SDS011;68544;45.566;10.238;2023-05-27T17:12:58;9.15;;;8.18;;
79137;SDS011;68544;45.566;10.238;2023-05-27T17:16:22;8.88;;;8.05;;
79137;SDS011;68544;45.566;10.238;2023-05-27T17:19:46;9.40;;;8.05;;
79137;SDS011;68544;45.566;10.238;2023-05-27T17:23:10;9.48;;;8.50;;
79137;SDS011;68544;45.566;10.238;2023-05-27T17:26:34;10.05;;;9.05;;
79137;SDS011;68544;45.566;10.238;2023-05-27T17:29:58;11.82;;;8.68;;
79137;SDS011;68544;45.566;10.238;2023-05-27T17:33:22;10.23;;;8.82;;
79137;SDS011;68544;45.566;10.238;2023-05-27T17:36:46;12.20;;;9.48;;
79137;SDS011;68544;45.566;10.238;2023-05-27T17:40:10;11.15;;;9.60;;
79137;SDS011;68544;45.566;10.238;2023-05-27T17:43:36;11.23;;;9.48;;
79137;SDS011;68544;45.566;10.238;2023-05-27T17:47:00;11.82;;;9.18;;
79137;SDS011;68544;45.566;10.238;2023-05-27T17:50:24;11.52;;;9.60;;
79137;SDS011;68544;45.566;10.238;2023-05-27T17:53:49;12.73;;;10.30;;
79137;SDS011;68544;45.566;10.238;2023-05-27T17:57:13;10.68;;;9.55;;
79137;SDS011;68544;45.566;10.238;2023-05-27T18:00:37;10.10;;;9.10;;
79137;SDS011;68544;45.566;10.238;2023-05-27T18:04:02;10.30;;;9.23;;
79137;SDS011;68544;45.566;10.238;2023-05-27T18:07:27;11.45;;;9.55;;
79137;SDS011;68544;45.566;10.238;2023-05-27T18:10:50;10.82;;;9.48;;
79137;SDS011;68544;45.566;10.238;2023-05-27T18:14:14;10.93;;;9.82;;
79137;SDS011;68544;45.566;10.238;2023-05-27T18:17:38;11.65;;;9.52;;
79137;SDS011;68544;45.566;10.238;2023-05-27T18:21:02;10.65;;;9.55;;
79137;SDS011;68544;45.566;10.238;2023-05-27T18:24:26;10.07;;;9.07;;
79137;SDS011;68544;45.566;10.238;2023-05-27T18:27:50;10.65;;;9.52;;
79137;SDS011;68544;45.566;10.238;2023-05-27T18:31:14;12.18;;;9.98;;
79137;SDS011;68544;45.566;10.238;2023-05-27T18:34:37;16.77;;;9.60;;
79137;SDS011;68544;45.566;10.238;2023-05-27T18:38:01;11.90;;;8.70;;
79137;SDS011;68544;45.566;10.238;2023-05-27T18:41:25;11.15;;;8.60;;
79137;SDS011;68544;45.566;10.238;2023-05-27T18:44:49;11.82;;;9.70;;
79137;SDS011;68544;45.566;10.238;2023-05-27T18:48:23;11.30;;;9.38;;
79137;SDS011;68544;45.566;10.238;2023-05-27T18:51:48;10.95;;;9.38;;
79137;SDS011;68544;45.566;10.238;2023-05-27T18:55:12;11.52;;;10.13;;
79137;SDS011;68544;45.566;10.238;2023-05-27T18:58:36;11.48;;;9.35;;
79137;SDS011;68544;45.566;10.238;2023-05-27T19:02:00;11.35;;;10.35;;
79137;SDS011;68544;45.566;10.238;2023-05-27T19:05:26;10.63;;;9.63;;
79137;SDS011;68544;45.566;10.238;2023-05-27T19:08:50;12.23;;;10.35;;
79137;SDS011;68544;45.566;10.238;2023-05-27T19:12:17;10.45;;;9.35;;
79137;SDS011;68544;45.566;10.238;2023-05-27T19:15:40;13.63;;;10.52;;
79137;SDS011;68544;45.566;10.238;2023-05-27T19:19:04;11.57;;;10.48;;
79137;SDS011;68544;45.566;10.238;2023-05-27T19:22:28;12.75;;;9.45;;
79137;SDS011;68544;45.566;10.238;2023-05-27T19:25:52;11.48;;;9.57;;
79137;SDS011;68544;45.566;10.238;2023-05-27T19:29:16;11.90;;;10.32;;
79137;SDS011;68544;45.566;10.238;2023-05-27T19:32:40;13.20;;;10.45;;
79137;SDS011;68544;45.566;10.238;2023-05-27T19:36:04;11.40;;;9.75;;
79137;SDS011;68544;45.566;10.238;2023-05-27T19:39:28;9.55;;;8.55;;
79137;SDS011;68544;45.566;10.238;2023-05-27T19:42:52;9.45;;;7.13;;
79137;SDS011;68544;45.566;10.238;2023-05-27T19:46:16;7.47;;;6.15;;
79137;SDS011;68544;45.566;10.238;2023-05-27T19:49:40;11.60;;;7.65;;
79137;SDS011;68544;45.566;10.238;2023-05-27T19:53:04;8.68;;;7.72;;
79137;SDS011;68544;45.566;10.238;2023-05-27T19:56:28;11.30;;;7.93;;
79137;SDS011;68544;45.566;10.238;2023-05-27T19:59:52;8.95;;;7.72;;
79137;SDS011;68544;45.566;10.238;2023-05-27T20:03:16;12.13;;;8.15;;
79137;SDS011;68544;45.566;10.238;2023-05-27T20:06:40;10.93;;;9.77;;
79137;SDS011;68544;45.566;10.238;2023-05-27T20:10:04;11.45;;;8.73;;
79137;SDS011;68544;45.566;10.238;2023-05-27T20:13:28;10.23;;;9.00;;
79137;SDS011;68544;45.566;10.238;2023-05-27T20:16:52;12.05;;;10.07;;
79137;SDS011;68544;45.566;10.238;2023-05-27T20:20:16;12.57;;;10.15;;
79137;SDS011;68544;45.566;10.238;2023-05-27T20:23:41;9.65;;;8.65;;